sensor_id;sensor_type;location;lat;lon;timestamp;P1;durP1;ratioP1;P2;durP2;ratioP2
47860;SDS011;33620;52.340;5.984;2023-06-10T00:02:10;14.27;;;5.25;;
47860;SDS011;33620;52.340;5.984;2023-06-10T00:04:35;10.60;;;4.97;;
47860;SDS011;33620;52.340;5.984;2023-06-10T00:07:02;13.88;;;5.85;;
47860;SDS011;33620;52.340;5.984;2023-06-10T00:09:28;11.50;;;5.78;;
47860;SDS011;33620;52.340;5.984;2023-06-10T00:11:54;11.60;;;5.53;;
47860;SDS011;33620;52.340;5.984;2023-06-10T00:14:19;14.30;;;5.80;;
47860;SDS011;33620;52.340;5.984;2023-06-10T00:16:45;10.48;;;5.05;;
47860;SDS011;33620;52.340;5.984;2023-06-10T00:19:10;12.13;;;5.05;;
47860;SDS011;33620;52.340;5.984;2023-06-10T00:21:39;12.63;;;5.45;;
47860;SDS011;33620;52.340;5.984;2023-06-10T00:24:10;11.00;;;5.13;;
47860;SDS011;33620;52.340;5.984;2023-06-10T00:26:37;10.80;;;5.28;;
47860;SDS011;33620;52.340;5.984;2023-06-10T00:29:03;12.25;;;5.40;;
47860;SDS011;33620;52.340;5.984;2023-06-10T00:31:28;14.55;;;5.55;;
47860;SDS011;33620;52.340;5.984;2023-06-10T00:33:55;11.82;;;5.53;;
47860;SDS011;33620;52.340;5.984;2023-06-10T00:36:20;11.77;;;4.93;;
47860;SDS011;33620;52.340;5.984;2023-06-10T00:38:46;11.43;;;5.32;;
47860;SDS011;33620;52.340;5.984;2023-06-10T00:41:11;12.80;;;5.78;;
47860;SDS011;33620;52.340;5.984;2023-06-10T00:43:37;13.63;;;5.47;;
47860;SDS011;33620;52.340;5.984;2023-06-10T00:46:02;13.77;;;5.65;;
47860;SDS011;33620;52.340;5.984;2023-06-10T00:48:27;11.27;;;5.40;;
47860;SDS011;33620;52.340;5.984;2023-06-10T00:50:53;12.60;;;5.20;;
47860;SDS011;33620;52.340;5.984;2023-06-10T00:53:21;13.35;;;5.90;;
47860;SDS011;33620;52.340;5.984;2023-06-10T00:55:47;17.10;;;6.20;;
47860;SDS011;33620;52.340;5.984;2023-06-10T00:58:12;14.02;;;5.55;;
47860;SDS011;33620;52.340;5.984;2023-06-10T01:00:38;13.45;;;5.63;;
47860;SDS011;33620;52.340;5.984;2023-06-10T01:03:04;12.30;;;5.35;;
47860;SDS011;33620;52.340;5.984;2023-06-10T01:05:32;10.52;;;5.13;;
47860;SDS011;33620;52.340;5.984;2023-06-10T01:08:09;13.60;;;6.05;;
47860;SDS011;33620;52.340;5.984;2023-06-10T01:10:57;13.55;;;5.78;;
47860;SDS011;33620;52.340;5.984;2023-06-10T01:13:29;14.48;;;5.88;;
47860;SDS011;33620;52.340;5.984;2023-06-10T01:15:57;11.88;;;5.57;;
47860;SDS011;33620;52.340;5.984;2023-06-10T01:18:29;12.93;;;5.63;;
47860;SDS011;33620;52.340;5.984;2023-06-10T01:20:55;12.63;;;5.25;;
47860;SDS011;33620;52.340;5.984;2023-06-10T01:23:21;10.10;;;5.15;;
47860;SDS011;33620;52.340;5.984;2023-06-10T01:31:07;11.40;;;5.53;;
47860;SDS011;33620;52.340;5.984;2023-06-10T01:33:59;12.73;;;5.97;;
47860;SDS011;33620;52.340;5.984;2023-06-10T01:36:25;11.82;;;5.85;;
47860;SDS011;33620;52.340;5.984;2023-06-10T01:38:53;13.25;;;5.85;;
47860;SDS011;33620;52.340;5.984;2023-06-10T01:41:20;11.52;;;6.18;;
47860;SDS011;33620;52.340;5.984;2023-06-10T01:43:46;12.50;;;6.13;;
47860;SDS011;33620;52.340;5.984;2023-06-10T01:46:13;13.20;;;5.70;;
47860;SDS011;33620;52.340;5.984;2023-06-10T01:48:39;14.50;;;5.93;;
47860;SDS011;33620;52.340;5.984;2023-06-10T01:51:06;15.50;;;5.65;;
47860;SDS011;33620;52.340;5.984;2023-06-10T01:53:31;17.48;;;6.45;;
47860;SDS011;33620;52.340;5.984;2023-06-10T01:55:56;11.43;;;5.90;;
47860;SDS011;33620;52.340;5.984;2023-06-10T01:58:22;13.32;;;6.38;;
47860;SDS011;33620;52.340;5.984;2023-06-10T02:00:47;14.68;;;5.50;;
47860;SDS011;33620;52.340;5.984;2023-06-10T02:03:13;13.32;;;5.50;;
47860;SDS011;33620;52.340;5.984;2023-06-10T02:05:38;15.00;;;6.03;;
47860;SDS011;33620;52.340;5.984;2023-06-10T02:08:04;12.45;;;5.68;;
47860;SDS011;33620;52.340;5.984;2023-06-10T02:10:30;12.90;;;5.88;;
47860;SDS011;33620;52.340;5.984;2023-06-10T02:12:55;14.23;;;6.25;;
47860;SDS011;33620;52.340;5.984;2023-06-10T02:15:21;12.32;;;6.18;;
47860;SDS011;33620;52.340;5.984;2023-06-10T02:17:46;12.48;;;5.93;;
47860;SDS011;33620;52.340;5.984;2023-06-10T02:20:13;14.13;;;6.00;;
47860;SDS011;33620;52.340;5.984;2023-06-10T02:22:39;14.38;;;6.30;;
47860;SDS011;33620;52.340;5.984;2023-06-10T02:25:05;12.93;;;6.47;;
47860;SDS011;33620;52.340;5.984;2023-06-10T02:27:30;13.77;;;5.70;;
47860;SDS011;33620;52.340;5.984;2023-06-10T02:29:56;12.15;;;5.65;;
47860;SDS011;33620;52.340;5.984;2023-06-10T02:32:22;13.20;;;6.10;;
47860;SDS011;33620;52.340;5.984;2023-06-10T02:34:48;12.68;;;5.80;;
47860;SDS011;33620;52.340;5.984;2023-06-10T02:37:17;12.98;;;5.65;;
47860;SDS011;33620;52.340;5.984;2023-06-10T02:39:43;12.73;;;5.63;;
47860;SDS011;33620;52.340;5.984;2023-06-10T02:42:09;13.05;;;6.20;;
47860;SDS011;33620;52.340;5.984;2023-06-10T02:44:35;15.02;;;6.22;;
47860;SDS011;33620;52.340;5.984;2023-06-10T02:47:00;14.15;;;6.53;;
47860;SDS011;33620;52.340;5.984;2023-06-10T02:49:26;13.75;;;6.18;;
47860;SDS011;33620;52.340;5.984;2023-06-10T02:51:54;12.95;;;5.80;;
47860;SDS011;33620;52.340;5.984;2023-06-10T02:54:21;14.20;;;6.18;;
47860;SDS011;33620;52.340;5.984;2023-06-10T02:56:47;13.45;;;6.00;;
47860;SDS011;33620;52.340;5.984;2023-06-10T02:59:13;12.85;;;6.30;;
47860;SDS011;33620;52.340;5.984;2023-06-10T03:01:39;13.98;;;6.22;;
47860;SDS011;33620;52.340;5.984;2023-06-10T03:04:04;13.10;;;5.82;;
47860;SDS011;33620;52.340;5.984;2023-06-10T03:06:30;16.13;;;6.28;;
47860;SDS011;33620;52.340;5.984;2023-06-10T03:08:58;13.85;;;5.95;;
47860;SDS011;33620;52.340;5.984;2023-06-10T03:11:23;14.45;;;5.90;;
47860;SDS011;33620;52.340;5.984;2023-06-10T03:13:48;14.32;;;6.20;;
47860;SDS011;33620;52.340;5.984;2023-06-10T03:16:14;15.30;;;6.30;;
47860;SDS011;33620;52.340;5.984;2023-06-10T03:18:39;13.75;;;6.10;;
47860;SDS011;33620;52.340;5.984;2023-06-10T03:21:05;14.45;;;6.47;;
47860;SDS011;33620;52.340;5.984;2023-06-10T03:23:30;15.07;;;6.40;;
47860;SDS011;33620;52.340;5.984;2023-06-10T03:25:55;15.70;;;6.60;;
47860;SDS011;33620;52.340;5.984;2023-06-10T03:28:21;14.90;;;6.55;;
47860;SDS011;33620;52.340;5.984;2023-06-10T03:30:46;12.18;;;6.68;;
47860;SDS011;33620;52.340;5.984;2023-06-10T03:33:12;14.55;;;6.53;;
47860;SDS011;33620;52.340;5.984;2023-06-10T03:35:38;12.77;;;6.53;;
47860;SDS011;33620;52.340;5.984;2023-06-10T03:38:04;18.38;;;7.22;;
47860;SDS011;33620;52.340;5.984;2023-06-10T03:40:30;17.90;;;7.45;;
47860;SDS011;33620;52.340;5.984;2023-06-10T03:42:56;18.15;;;6.43;;
47860;SDS011;33620;52.340;5.984;2023-06-10T03:45:22;17.70;;;7.03;;
47860;SDS011;33620;52.340;5.984;2023-06-10T03:47:48;13.45;;;6.43;;
47860;SDS011;33620;52.340;5.984;2023-06-10T03:50:13;17.73;;;7.30;;
47860;SDS011;33620;52.340;5.984;2023-06-10T03:52:38;14.68;;;6.45;;
47860;SDS011;33620;52.340;5.984;2023-06-10T03:55:05;14.75;;;6.40;;
47860;SDS011;33620;52.340;5.984;2023-06-10T03:57:31;16.88;;;7.07;;
47860;SDS011;33620;52.340;5.984;2023-06-10T03:59:56;13.45;;;6.30;;
47860;SDS011;33620;52.340;5.984;2023-06-10T04:02:21;15.40;;;6.30;;
47860;SDS011;33620;52.340;5.984;2023-06-10T04:04:47;14.57;;;6.75;;
47860;SDS011;33620;52.340;5.984;2023-06-10T04:07:13;16.80;;;6.53;;
47860;SDS011;33620;52.340;5.984;2023-06-10T04:09:39;14.55;;;6.40;;
47860;SDS011;33620;52.340;5.984;2023-06-10T04:12:04;18.15;;;6.93;;
47860;SDS011;33620;52.340;5.984;2023-06-10T04:14:35;14.20;;;7.15;;
47860;SDS011;33620;52.340;5.984;2023-06-10T04:17:04;14.02;;;6.45;;
47860;SDS011;33620;52.340;5.984;2023-06-10T04:19:33;15.45;;;6.63;;
47860;SDS011;33620;52.340;5.984;2023-06-10T04:22:00;14.10;;;7.07;;
47860;SDS011;33620;52.340;5.984;2023-06-10T04:24:26;15.82;;;6.68;;
47860;SDS011;33620;52.340;5.984;2023-06-10T04:26:51;16.02;;;7.45;;
47860;SDS011;33620;52.340;5.984;2023-06-10T04:29:16;16.17;;;7.05;;
47860;SDS011;33620;52.340;5.984;2023-06-10T04:31:42;15.07;;;6.90;;
47860;SDS011;33620;52.340;5.984;2023-06-10T04:34:07;17.02;;;7.63;;
47860;SDS011;33620;52.340;5.984;2023-06-10T04:36:32;16.58;;;7.50;;
47860;SDS011;33620;52.340;5.984;2023-06-10T04:38:58;15.63;;;7.22;;
47860;SDS011;33620;52.340;5.984;2023-06-10T04:41:23;15.88;;;6.72;;
47860;SDS011;33620;52.340;5.984;2023-06-10T04:43:50;20.42;;;7.72;;
47860;SDS011;33620;52.340;5.984;2023-06-10T04:46:16;16.60;;;6.85;;
47860;SDS011;33620;52.340;5.984;2023-06-10T04:48:41;16.02;;;7.10;;
47860;SDS011;33620;52.340;5.984;2023-06-10T04:51:07;17.27;;;7.50;;
47860;SDS011;33620;52.340;5.984;2023-06-10T04:53:32;15.88;;;7.13;;
47860;SDS011;33620;52.340;5.984;2023-06-10T04:55:58;15.75;;;6.90;;
47860;SDS011;33620;52.340;5.984;2023-06-10T04:58:23;15.05;;;6.88;;
47860;SDS011;33620;52.340;5.984;2023-06-10T05:00:49;17.13;;;7.38;;
47860;SDS011;33620;52.340;5.984;2023-06-10T05:03:14;16.73;;;7.47;;
47860;SDS011;33620;52.340;5.984;2023-06-10T05:05:40;21.02;;;7.90;;
47860;SDS011;33620;52.340;5.984;2023-06-10T05:08:05;15.65;;;7.07;;
47860;SDS011;33620;52.340;5.984;2023-06-10T05:10:30;15.90;;;7.43;;
47860;SDS011;33620;52.340;5.984;2023-06-10T05:12:57;16.05;;;7.15;;
47860;SDS011;33620;52.340;5.984;2023-06-10T05:15:23;20.48;;;7.95;;
47860;SDS011;33620;52.340;5.984;2023-06-10T05:17:49;15.32;;;7.55;;
47860;SDS011;33620;52.340;5.984;2023-06-10T05:20:15;14.55;;;7.20;;
47860;SDS011;33620;52.340;5.984;2023-06-10T05:22:40;16.45;;;7.10;;
47860;SDS011;33620;52.340;5.984;2023-06-10T05:25:06;16.55;;;7.78;;
47860;SDS011;33620;52.340;5.984;2023-06-10T05:27:32;19.90;;;7.68;;
47860;SDS011;33620;52.340;5.984;2023-06-10T05:29:58;14.80;;;7.07;;
47860;SDS011;33620;52.340;5.984;2023-06-10T05:32:23;16.17;;;7.50;;
47860;SDS011;33620;52.340;5.984;2023-06-10T05:34:48;14.80;;;7.00;;
47860;SDS011;33620;52.340;5.984;2023-06-10T05:37:14;18.65;;;8.23;;
47860;SDS011;33620;52.340;5.984;2023-06-10T05:39:39;17.75;;;7.72;;
47860;SDS011;33620;52.340;5.984;2023-06-10T05:42:08;17.25;;;7.68;;
47860;SDS011;33620;52.340;5.984;2023-06-10T05:44:34;17.23;;;7.97;;
47860;SDS011;33620;52.340;5.984;2023-06-10T05:46:59;15.43;;;7.18;;
47860;SDS011;33620;52.340;5.984;2023-06-10T05:49:25;15.07;;;7.40;;
47860;SDS011;33620;52.340;5.984;2023-06-10T05:51:50;18.05;;;7.78;;
47860;SDS011;33620;52.340;5.984;2023-06-10T05:54:17;20.23;;;8.05;;
47860;SDS011;33620;52.340;5.984;2023-06-10T05:56:42;18.08;;;8.02;;
47860;SDS011;33620;52.340;5.984;2023-06-10T05:59:08;15.18;;;7.35;;
47860;SDS011;33620;52.340;5.984;2023-06-10T06:01:33;18.80;;;7.90;;
47860;SDS011;33620;52.340;5.984;2023-06-10T06:03:59;15.98;;;7.47;;
47860;SDS011;33620;52.340;5.984;2023-06-10T06:06:24;16.67;;;8.18;;
47860;SDS011;33620;52.340;5.984;2023-06-10T06:08:50;15.55;;;7.95;;
47860;SDS011;33620;52.340;5.984;2023-06-10T06:11:15;16.25;;;8.68;;
47860;SDS011;33620;52.340;5.984;2023-06-10T06:13:40;18.60;;;7.80;;
47860;SDS011;33620;52.340;5.984;2023-06-10T06:16:07;17.45;;;8.52;;
47860;SDS011;33620;52.340;5.984;2023-06-10T06:18:32;16.45;;;7.75;;
47860;SDS011;33620;52.340;5.984;2023-06-10T06:20:58;17.67;;;7.97;;
47860;SDS011;33620;52.340;5.984;2023-06-10T06:23:23;19.23;;;8.18;;
47860;SDS011;33620;52.340;5.984;2023-06-10T06:25:49;17.80;;;7.03;;
47860;SDS011;33620;52.340;5.984;2023-06-10T06:28:14;18.27;;;7.78;;
47860;SDS011;33620;52.340;5.984;2023-06-10T06:30:40;17.85;;;8.13;;
47860;SDS011;33620;52.340;5.984;2023-06-10T06:33:05;16.20;;;7.88;;
47860;SDS011;33620;52.340;5.984;2023-06-10T06:35:32;14.85;;;7.63;;
47860;SDS011;33620;52.340;5.984;2023-06-10T06:38:00;12.98;;;7.22;;
47860;SDS011;33620;52.340;5.984;2023-06-10T06:40:25;16.95;;;8.00;;
47860;SDS011;33620;52.340;5.984;2023-06-10T06:42:51;15.90;;;7.82;;
47860;SDS011;33620;52.340;5.984;2023-06-10T06:45:16;17.98;;;7.65;;
47860;SDS011;33620;52.340;5.984;2023-06-10T06:47:42;16.33;;;7.45;;
47860;SDS011;33620;52.340;5.984;2023-06-10T06:50:08;19.45;;;7.88;;
47860;SDS011;33620;52.340;5.984;2023-06-10T06:52:34;17.13;;;7.43;;
47860;SDS011;33620;52.340;5.984;2023-06-10T06:54:59;15.18;;;6.78;;
47860;SDS011;33620;52.340;5.984;2023-06-10T06:57:24;18.60;;;7.85;;
47860;SDS011;33620;52.340;5.984;2023-06-10T06:59:50;14.65;;;6.93;;
47860;SDS011;33620;52.340;5.984;2023-06-10T07:02:15;15.95;;;7.18;;
47860;SDS011;33620;52.340;5.984;2023-06-10T07:04:41;16.25;;;6.95;;
47860;SDS011;33620;52.340;5.984;2023-06-10T07:07:07;16.33;;;7.05;;
47860;SDS011;33620;52.340;5.984;2023-06-10T07:09:33;15.07;;;7.35;;
47860;SDS011;33620;52.340;5.984;2023-06-10T07:11:59;16.02;;;8.00;;
47860;SDS011;33620;52.340;5.984;2023-06-10T07:14:24;14.00;;;6.88;;
47860;SDS011;33620;52.340;5.984;2023-06-10T07:16:50;15.95;;;7.80;;
47860;SDS011;33620;52.340;5.984;2023-06-10T07:19:15;18.60;;;7.57;;
47860;SDS011;33620;52.340;5.984;2023-06-10T07:21:41;17.23;;;8.35;;
47860;SDS011;33620;52.340;5.984;2023-06-10T07:24:06;15.50;;;7.03;;
47860;SDS011;33620;52.340;5.984;2023-06-10T07:26:32;16.52;;;7.78;;
47860;SDS011;33620;52.340;5.984;2023-06-10T07:28:57;16.00;;;6.90;;
47860;SDS011;33620;52.340;5.984;2023-06-10T07:31:23;13.60;;;6.78;;
47860;SDS011;33620;52.340;5.984;2023-06-10T07:33:49;16.90;;;7.47;;
47860;SDS011;33620;52.340;5.984;2023-06-10T07:36:14;13.07;;;6.68;;
47860;SDS011;33620;52.340;5.984;2023-06-10T07:38:40;16.50;;;7.47;;
47860;SDS011;33620;52.340;5.984;2023-06-10T07:41:07;19.88;;;7.70;;
47860;SDS011;33620;52.340;5.984;2023-06-10T07:43:33;12.52;;;6.80;;
47860;SDS011;33620;52.340;5.984;2023-06-10T07:45:58;15.85;;;6.45;;
47860;SDS011;33620;52.340;5.984;2023-06-10T07:48:24;16.00;;;7.25;;
47860;SDS011;33620;52.340;5.984;2023-06-10T07:50:49;15.75;;;7.22;;
47860;SDS011;33620;52.340;5.984;2023-06-10T07:53:15;15.32;;;6.72;;
47860;SDS011;33620;52.340;5.984;2023-06-10T07:55:40;14.30;;;6.30;;
47860;SDS011;33620;52.340;5.984;2023-06-10T07:58:05;17.88;;;7.63;;
47860;SDS011;33620;52.340;5.984;2023-06-10T08:00:31;15.32;;;6.78;;
47860;SDS011;33620;52.340;5.984;2023-06-10T08:02:56;13.38;;;6.30;;
47860;SDS011;33620;52.340;5.984;2023-06-10T08:05:21;13.98;;;6.25;;
47860;SDS011;33620;52.340;5.984;2023-06-10T08:07:47;14.23;;;6.72;;
47860;SDS011;33620;52.340;5.984;2023-06-10T08:10:12;18.10;;;6.72;;
47860;SDS011;33620;52.340;5.984;2023-06-10T08:12:38;15.85;;;7.28;;
47860;SDS011;33620;52.340;5.984;2023-06-10T08:15:03;16.20;;;6.78;;
47860;SDS011;33620;52.340;5.984;2023-06-10T08:17:29;17.75;;;6.80;;
47860;SDS011;33620;52.340;5.984;2023-06-10T08:19:55;16.85;;;6.95;;
47860;SDS011;33620;52.340;5.984;2023-06-10T08:22:20;13.50;;;6.43;;
47860;SDS011;33620;52.340;5.984;2023-06-10T08:24:46;11.95;;;6.35;;
47860;SDS011;33620;52.340;5.984;2023-06-10T08:27:11;16.75;;;6.72;;
47860;SDS011;33620;52.340;5.984;2023-06-10T08:29:37;16.83;;;6.68;;
47860;SDS011;33620;52.340;5.984;2023-06-10T08:32:02;12.13;;;5.50;;
47860;SDS011;33620;52.340;5.984;2023-06-10T08:34:28;14.02;;;6.20;;
47860;SDS011;33620;52.340;5.984;2023-06-10T08:36:53;10.90;;;5.78;;
47860;SDS011;33620;52.340;5.984;2023-06-10T08:39:20;14.68;;;6.53;;
47860;SDS011;33620;52.340;5.984;2023-06-10T08:42:03;13.80;;;6.35;;
47860;SDS011;33620;52.340;5.984;2023-06-10T08:44:31;15.70;;;6.30;;
47860;SDS011;33620;52.340;5.984;2023-06-10T08:46:58;15.57;;;6.80;;
47860;SDS011;33620;52.340;5.984;2023-06-10T08:49:26;17.08;;;6.50;;
47860;SDS011;33620;52.340;5.984;2023-06-10T08:51:54;11.90;;;6.05;;
47860;SDS011;33620;52.340;5.984;2023-06-10T08:54:24;15.95;;;6.78;;
47860;SDS011;33620;52.340;5.984;2023-06-10T08:56:52;16.60;;;6.95;;
47860;SDS011;33620;52.340;5.984;2023-06-10T08:59:20;13.45;;;6.13;;
47860;SDS011;33620;52.340;5.984;2023-06-10T09:01:46;12.93;;;5.80;;
47860;SDS011;33620;52.340;5.984;2023-06-10T09:04:12;11.98;;;5.55;;
47860;SDS011;33620;52.340;5.984;2023-06-10T09:06:38;17.35;;;6.28;;
47860;SDS011;33620;52.340;5.984;2023-06-10T09:09:05;13.95;;;5.70;;
47860;SDS011;33620;52.340;5.984;2023-06-10T09:11:32;15.77;;;6.32;;
47860;SDS011;33620;52.340;5.984;2023-06-10T09:13:58;11.10;;;5.82;;
47860;SDS011;33620;52.340;5.984;2023-06-10T09:16:24;14.48;;;6.43;;
47860;SDS011;33620;52.340;5.984;2023-06-10T09:18:50;11.70;;;5.40;;
47860;SDS011;33620;52.340;5.984;2023-06-10T09:21:20;13.57;;;5.35;;
47860;SDS011;33620;52.340;5.984;2023-06-10T09:23:47;13.43;;;5.47;;
47860;SDS011;33620;52.340;5.984;2023-06-10T09:26:13;13.32;;;5.80;;
47860;SDS011;33620;52.340;5.984;2023-06-10T09:28:38;13.70;;;5.82;;
47860;SDS011;33620;52.340;5.984;2023-06-10T09:31:05;9.55;;;4.90;;
47860;SDS011;33620;52.340;5.984;2023-06-10T09:33:32;11.35;;;4.63;;
47860;SDS011;33620;52.340;5.984;2023-06-10T09:36:01;13.95;;;5.63;;
47860;SDS011;33620;52.340;5.984;2023-06-10T09:38:30;13.30;;;5.63;;
47860;SDS011;33620;52.340;5.984;2023-06-10T09:40:57;13.30;;;5.95;;
47860;SDS011;33620;52.340;5.984;2023-06-10T09:43:23;13.98;;;5.75;;
47860;SDS011;33620;52.340;5.984;2023-06-10T09:46:03;12.52;;;5.20;;
47860;SDS011;33620;52.340;5.984;2023-06-10T09:48:28;12.43;;;5.97;;
47860;SDS011;33620;52.340;5.984;2023-06-10T09:50:53;13.25;;;6.32;;
47860;SDS011;33620;52.340;5.984;2023-06-10T09:53:19;16.40;;;5.75;;
47860;SDS011;33620;52.340;5.984;2023-06-10T09:55:45;14.77;;;6.40;;
47860;SDS011;33620;52.340;5.984;2023-06-10T09:58:10;14.43;;;5.80;;
47860;SDS011;33620;52.340;5.984;2023-06-10T10:00:36;13.52;;;5.82;;
47860;SDS011;33620;52.340;5.984;2023-06-10T10:03:01;13.07;;;5.82;;
47860;SDS011;33620;52.340;5.984;2023-06-10T10:05:27;15.35;;;6.00;;
47860;SDS011;33620;52.340;5.984;2023-06-10T10:07:53;11.85;;;5.28;;
47860;SDS011;33620;52.340;5.984;2023-06-10T10:10:19;13.80;;;5.43;;
47860;SDS011;33620;52.340;5.984;2023-06-10T10:12:46;13.73;;;5.60;;
47860;SDS011;33620;52.340;5.984;2023-06-10T10:15:12;14.13;;;5.85;;
47860;SDS011;33620;52.340;5.984;2023-06-10T10:17:39;14.07;;;5.75;;
47860;SDS011;33620;52.340;5.984;2023-06-10T10:20:09;11.30;;;5.13;;
47860;SDS011;33620;52.340;5.984;2023-06-10T10:22:39;12.95;;;5.32;;
47860;SDS011;33620;52.340;5.984;2023-06-10T10:25:11;12.23;;;5.85;;
47860;SDS011;33620;52.340;5.984;2023-06-10T10:27:44;13.98;;;5.78;;
47860;SDS011;33620;52.340;5.984;2023-06-10T10:30:46;15.70;;;5.35;;
47860;SDS011;33620;52.340;5.984;2023-06-10T10:33:21;14.50;;;5.53;;
47860;SDS011;33620;52.340;5.984;2023-06-10T10:35:53;17.80;;;5.68;;
47860;SDS011;33620;52.340;5.984;2023-06-10T10:38:19;12.13;;;5.22;;
47860;SDS011;33620;52.340;5.984;2023-06-10T10:40:46;11.77;;;5.35;;
47860;SDS011;33620;52.340;5.984;2023-06-10T10:43:12;11.65;;;5.65;;
47860;SDS011;33620;52.340;5.984;2023-06-10T10:45:39;16.00;;;5.40;;
47860;SDS011;33620;52.340;5.984;2023-06-10T10:48:05;11.20;;;5.20;;
47860;SDS011;33620;52.340;5.984;2023-06-10T10:50:35;15.10;;;5.85;;
47860;SDS011;33620;52.340;5.984;2023-06-10T10:53:01;14.63;;;5.07;;
47860;SDS011;33620;52.340;5.984;2023-06-10T10:55:27;12.43;;;5.10;;
47860;SDS011;33620;52.340;5.984;2023-06-10T10:58:14;8.90;;;5.30;;
47860;SDS011;33620;52.340;5.984;2023-06-10T11:00:44;11.98;;;5.65;;
47860;SDS011;33620;52.340;5.984;2023-06-10T11:03:13;8.23;;;4.65;;
47860;SDS011;33620;52.340;5.984;2023-06-10T11:05:44;8.77;;;4.80;;
47860;SDS011;33620;52.340;5.984;2023-06-10T11:08:13;11.93;;;5.15;;
47860;SDS011;33620;52.340;5.984;2023-06-10T11:10:50;10.02;;;4.75;;
47860;SDS011;33620;52.340;5.984;2023-06-10T11:13:19;12.15;;;5.30;;
47860;SDS011;33620;52.340;5.984;2023-06-10T11:28:40;11.45;;;4.70;;
47860;SDS011;33620;52.340;5.984;2023-06-10T11:33:57;9.57;;;4.63;;
47860;SDS011;33620;52.340;5.984;2023-06-10T11:36:23;7.10;;;4.45;;
47860;SDS011;33620;52.340;5.984;2023-06-10T11:38:51;10.55;;;5.15;;
47860;SDS011;33620;52.340;5.984;2023-06-10T11:41:20;13.70;;;5.38;;
47860;SDS011;33620;52.340;5.984;2023-06-10T11:43:46;11.07;;;5.25;;
47860;SDS011;33620;52.340;5.984;2023-06-10T11:46:12;10.30;;;5.25;;
47860;SDS011;33620;52.340;5.984;2023-06-10T11:48:39;9.80;;;5.00;;
47860;SDS011;33620;52.340;5.984;2023-06-10T11:51:05;12.65;;;4.82;;
47860;SDS011;33620;52.340;5.984;2023-06-10T11:53:32;10.50;;;5.28;;
47860;SDS011;33620;52.340;5.984;2023-06-10T11:55:57;12.15;;;5.50;;
47860;SDS011;33620;52.340;5.984;2023-06-10T11:58:22;10.32;;;5.07;;
47860;SDS011;33620;52.340;5.984;2023-06-10T12:00:49;13.82;;;5.90;;
47860;SDS011;33620;52.340;5.984;2023-06-10T12:03:16;14.52;;;4.85;;
47860;SDS011;33620;52.340;5.984;2023-06-10T12:05:58;11.73;;;4.95;;
47860;SDS011;33620;52.340;5.984;2023-06-10T12:08:25;11.27;;;5.47;;
47860;SDS011;33620;52.340;5.984;2023-06-10T12:10:51;10.15;;;4.85;;
47860;SDS011;33620;52.340;5.984;2023-06-10T12:13:16;11.73;;;5.55;;
47860;SDS011;33620;52.340;5.984;2023-06-10T12:15:45;12.25;;;5.35;;
47860;SDS011;33620;52.340;5.984;2023-06-10T12:18:21;8.38;;;4.75;;
47860;SDS011;33620;52.340;5.984;2023-06-10T12:20:48;9.07;;;4.43;;
47860;SDS011;33620;52.340;5.984;2023-06-10T12:23:14;10.77;;;5.28;;
47860;SDS011;33620;52.340;5.984;2023-06-10T12:25:51;11.15;;;4.90;;
47860;SDS011;33620;52.340;5.984;2023-06-10T12:28:20;12.05;;;4.93;;
47860;SDS011;33620;52.340;5.984;2023-06-10T12:30:46;10.38;;;5.00;;
47860;SDS011;33620;52.340;5.984;2023-06-10T12:33:18;10.07;;;4.88;;
47860;SDS011;33620;52.340;5.984;2023-06-10T12:35:51;10.23;;;5.13;;
47860;SDS011;33620;52.340;5.984;2023-06-10T12:38:26;11.35;;;5.28;;
47860;SDS011;33620;52.340;5.984;2023-06-10T12:40:54;10.10;;;5.20;;
47860;SDS011;33620;52.340;5.984;2023-06-10T12:43:25;11.13;;;4.97;;
47860;SDS011;33620;52.340;5.984;2023-06-10T12:45:51;10.70;;;5.13;;
47860;SDS011;33620;52.340;5.984;2023-06-10T12:48:20;11.27;;;4.88;;
47860;SDS011;33620;52.340;5.984;2023-06-10T12:50:50;10.60;;;4.82;;
47860;SDS011;33620;52.340;5.984;2023-06-10T12:53:17;9.98;;;4.97;;
47860;SDS011;33620;52.340;5.984;2023-06-10T12:55:43;9.93;;;4.88;;
47860;SDS011;33620;52.340;5.984;2023-06-10T12:58:10;8.88;;;4.35;;
47860;SDS011;33620;52.340;5.984;2023-06-10T13:00:35;10.88;;;5.07;;
47860;SDS011;33620;52.340;5.984;2023-06-10T13:03:01;10.40;;;4.90;;
47860;SDS011;33620;52.340;5.984;2023-06-10T13:05:27;11.30;;;4.97;;
47860;SDS011;33620;52.340;5.984;2023-06-10T13:07:53;8.95;;;4.70;;
47860;SDS011;33620;52.340;5.984;2023-06-10T13:10:20;13.13;;;4.88;;
47860;SDS011;33620;52.340;5.984;2023-06-10T13:12:45;11.45;;;4.97;;
47860;SDS011;33620;52.340;5.984;2023-06-10T13:15:11;9.80;;;5.07;;
47860;SDS011;33620;52.340;5.984;2023-06-10T13:17:37;9.10;;;4.60;;
47860;SDS011;33620;52.340;5.984;2023-06-10T13:20:03;10.60;;;5.50;;
47860;SDS011;33620;52.340;5.984;2023-06-10T13:22:30;7.47;;;4.47;;
47860;SDS011;33620;52.340;5.984;2023-06-10T13:24:57;11.18;;;4.68;;
47860;SDS011;33620;52.340;5.984;2023-06-10T13:27:25;8.18;;;4.47;;
47860;SDS011;33620;52.340;5.984;2023-06-10T13:29:52;10.30;;;4.60;;
47860;SDS011;33620;52.340;5.984;2023-06-10T13:32:17;11.98;;;4.18;;
47860;SDS011;33620;52.340;5.984;2023-06-10T13:34:43;7.15;;;4.28;;
47860;SDS011;33620;52.340;5.984;2023-06-10T13:37:08;7.32;;;4.70;;
47860;SDS011;33620;52.340;5.984;2023-06-10T13:39:33;10.27;;;5.85;;
47860;SDS011;33620;52.340;5.984;2023-06-10T13:41:59;8.77;;;4.30;;
47860;SDS011;33620;52.340;5.984;2023-06-10T13:44:24;9.05;;;4.38;;
47860;SDS011;33620;52.340;5.984;2023-06-10T13:46:49;7.55;;;4.38;;
47860;SDS011;33620;52.340;5.984;2023-06-10T13:49:15;6.60;;;4.15;;
47860;SDS011;33620;52.340;5.984;2023-06-10T13:51:40;7.85;;;4.55;;
47860;SDS011;33620;52.340;5.984;2023-06-10T13:54:06;8.55;;;4.57;;
47860;SDS011;33620;52.340;5.984;2023-06-10T13:56:31;7.43;;;3.97;;
47860;SDS011;33620;52.340;5.984;2023-06-10T13:58:58;14.55;;;4.68;;
47860;SDS011;33620;52.340;5.984;2023-06-10T14:01:24;9.25;;;4.45;;
47860;SDS011;33620;52.340;5.984;2023-06-10T14:03:50;6.88;;;4.10;;
47860;SDS011;33620;52.340;5.984;2023-06-10T14:06:15;8.30;;;4.07;;
47860;SDS011;33620;52.340;5.984;2023-06-10T14:08:43;9.73;;;4.05;;
47860;SDS011;33620;52.340;5.984;2023-06-10T14:11:09;5.82;;;3.70;;
47860;SDS011;33620;52.340;5.984;2023-06-10T14:13:34;7.75;;;4.00;;
47860;SDS011;33620;52.340;5.984;2023-06-10T14:16:00;7.35;;;4.38;;
47860;SDS011;33620;52.340;5.984;2023-06-10T14:18:27;8.23;;;4.30;;
47860;SDS011;33620;52.340;5.984;2023-06-10T14:20:53;7.15;;;4.15;;
47860;SDS011;33620;52.340;5.984;2023-06-10T14:23:18;8.20;;;4.72;;
47860;SDS011;33620;52.340;5.984;2023-06-10T14:25:44;6.82;;;4.25;;
47860;SDS011;33620;52.340;5.984;2023-06-10T14:28:09;8.60;;;4.25;;
47860;SDS011;33620;52.340;5.984;2023-06-10T14:30:34;8.68;;;5.05;;
47860;SDS011;33620;52.340;5.984;2023-06-10T14:33:00;7.43;;;4.43;;
47860;SDS011;33620;52.340;5.984;2023-06-10T14:35:25;13.43;;;5.82;;
47860;SDS011;33620;52.340;5.984;2023-06-10T14:37:51;8.02;;;4.50;;
47860;SDS011;33620;52.340;5.984;2023-06-10T14:40:16;8.00;;;4.53;;
47860;SDS011;33620;52.340;5.984;2023-06-10T14:42:41;8.85;;;4.50;;
47860;SDS011;33620;52.340;5.984;2023-06-10T14:45:07;9.45;;;4.57;;
47860;SDS011;33620;52.340;5.984;2023-06-10T14:47:33;20.85;;;10.88;;
47860;SDS011;33620;52.340;5.984;2023-06-10T14:49:58;20.00;;;10.15;;
47860;SDS011;33620;52.340;5.984;2023-06-10T14:52:24;29.10;;;15.80;;
47860;SDS011;33620;52.340;5.984;2023-06-10T14:54:49;77.35;;;43.58;;